Terminal Aerodrome Forecast
Issued by NWS North Platte, NE

Home | Current Version | Previous Version | Text Only | Print | Product List | Glossary On
Versions: 1 2 3 4 5 6 7 8 9 10 11 12 13 14 15 16 17 18 19 20
000
FTUS43 KLBF 282300
TAFLBF
TAF
KLBF 282326Z 2900/2924 18015KT P6SM SKC
     FM290500 28012G19KT P6SM VCTS SCT100CB BKN200
     FM290900 33015KT P6SM SCT120
     FM291400 32017G27KT P6SM SKC
     FM292000 33014G21KT P6SM SKC=

USA.gov is the U.S. government's official web portal to all federal, state and local government web resources and services.